Wood River, IL (62095)

8:06 AM CDT on September 01, 2014 (GMT -0500)
Rosewood Heights | Change Station
CLOSE
Current Station
Personal Weather Station
Location: East Alton, IL
Elevation: 545 ft
Nearby Weather Stations

Elev 545 ft 38.88 °N, 90.07 °W | Updated 8 seconds ago

Overcast
Overcast
74.6 °F
Feels Like 75 °F
N
0.0
Wind Variable Wind from SSW
Gusts 3.0 mph

Today
High -- | Low -- °F
--% Chance of Precip.
Yesterday
High -- | Low -- °F
Precip. -- in
6:29 AM 7:30 PM
Waxing Crescent, 40% visible
Pressure 29.92 in
Visibility 10.0 miles
Clouds Few 2500 ft
Scattered Clouds 5500 ft
Mostly Cloudy 10000 ft
Mostly Cloudy 15000 ft
Overcast 20000 ft
Heat Index 75 °F
Dew Point 67 °F
Humidity 77%
Rainfall 0.00 in
Snow Depth Not available.
UV 0 out of 12
Pollen 10.80 out of 12
Ozone Good
PM2.5 Moderate
Flu Activity Not available.
METAR KSTL 011251Z 25012G18KT 10SM FEW025 SCT055 BKN100 BKN150 OVC200 24/18 A2992

More Conditions Fewer Conditions

Pressure 29.92 in
Visibility 10.0 miles
Clouds Few 2500 ft
Scattered Clouds 5500 ft
Mostly Cloudy 10000 ft
Mostly Cloudy 15000 ft
Overcast 20000 ft
Heat Index 75 °F
Dew Point 67 °F
Humidity 77%
Rainfall 0.00 in
Snow Depth Not available.
UV 0 out of 12
Pollen 10.80 out of 12
Ozone Good
PM2.5 Moderate
Flu Activity Not available.
METAR KSTL 011251Z 25012G18KT 10SM FEW025 SCT055 BKN100 BKN150 OVC200 24/18 A2992

More Conditions Fewer Conditions

10-Day Weather Forecast

Almanac

Astronomy

Sep. 01, 2014 Rise Set
Actual Time 6:29 AM CDT 7:30 PM CDT
Civil Twilight 6:02 AM CDT 7:57 PM CDT
Nautical Twilight 5:29 AM CDT 8:30 PM CDT
Astronomical Twilight 4:55 AM CDT 9:03 PM CDT
Moon 1:11 PM CDT 11:35 PM CDT
Length of Visible Light 13h 55m
Length of Day
13h 01m
Tomorrow will be 2m 26s shorter.
Waxing Crescent, 40% of the Moon is Illuminated
Today
Waxing Crescent
Sep 2
First Quarter
Sep 8
Full
Sep 15
Last Quarter
Sep 24
New

Today's Extremes

State Highs State Lows

Community

WunderPhotos

Upload Photos

1,749,203 photos uploaded!

Nearby

Air Quality

  Air Quality AQ Index Pollutant
Yesterday Good
OZONE
Yesterday Good
PM2.5
Current Moderate
PM2.5
Current Good
OZONE
Monday Moderate
PM2.5
Monday Good
OZONE
Tuesday Moderate
PM2.5
Tuesday Good
OZONE

Snow Depth

Station Depth Elevation
No new snow has been reported.

Earthquake Activity

City Distance Mag. Time & Date
No recent earthquake activity has been reported nearby.
Minimum magnitude displayed is 2.5.

Coastal Water Temperatures

Place Temperature
No Stations Reporting

Nearby Weather Stations